Time;durP1;ratioP1;P1;durP2;ratioP2;P2;SDS_P1;SDS_P2;PMS_P1;PMS_P2;Temp;Humidity;BMP_temperature;BMP_pressure;BME280_temperature;BME280_humidity;BME280_pressure;Samples;Min_cycle;Max_cycle;Signal;HPM_P1;HPM_P2
2021/12/23 00:00:03;;;;;;;11.65;7.40;;;-1.10;99.90;;;;;;4828418;29;20147;-75
2021/12/23 00:02:28;;;;;;;13.57;8.70;;;-1.10;99.90;;;;;;4842776;29;20041;-75
2021/12/23 00:04:54;;;;;;;13.13;9.20;;;-1.00;99.90;;;;;;4834959;29;20052;-75
2021/12/23 00:07:20;;;;;;;13.07;7.83;;;-1.00;99.90;;;;;;4824100;29;20313;-75
2021/12/23 00:12:17;;;;;;;13.52;8.15;;;-1.00;99.90;;;;;;4831292;29;20081;-75
2021/12/23 00:14:45;;;;;;;11.90;8.40;;;-1.00;99.90;;;;;;4813097;29;20049;-75
2021/12/23 00:17:26;;;;;;;12.40;8.05;;;-0.90;99.90;;;;;;4840289;29;20549;-75
2021/12/23 00:25:27;;;;;;;11.98;8.45;;;-0.80;99.90;;;;;;4819907;29;20444;-75
2021/12/23 00:27:53;;;;;;;14.25;8.65;;;-0.90;99.90;;;;;;4821772;29;20046;-75
2021/12/23 00:30:18;;;;;;;12.13;8.17;;;-0.80;99.90;;;;;;4855317;29;20121;-75
2021/12/23 00:32:44;;;;;;;14.20;8.85;;;-0.80;99.90;;;;;;4810749;29;20282;-75
2021/12/23 00:35:10;;;;;;;16.40;9.65;;;-0.80;99.90;;;;;;4823089;29;20042;-75
2021/12/23 00:37:40;;;;;;;12.80;8.95;;;-0.80;99.90;;;;;;4831453;29;20476;-75
2021/12/23 00:40:09;;;;;;;12.57;8.02;;;-0.80;99.90;;;;;;4818769;29;20064;-75
2021/12/23 00:42:36;;;;;;;14.00;8.70;;;-0.70;99.90;;;;;;4829626;29;20751;-75
2021/12/23 00:45:03;;;;;;;14.27;9.93;;;-0.70;99.90;;;;;;4810167;29;20135;-75
2021/12/23 00:47:29;;;;;;;14.43;9.57;;;-0.70;99.90;;;;;;4821291;29;20060;-75
2021/12/23 00:49:55;;;;;;;14.63;9.10;;;-0.70;99.90;;;;;;4822628;29;20046;-75
2021/12/23 00:52:28;;;;;;;13.73;9.63;;;-0.60;99.90;;;;;;4829470;29;20038;-75
2021/12/23 00:54:54;;;;;;;12.57;8.25;;;-0.60;99.90;;;;;;4810723;29;20381;-75
2021/12/23 00:57:26;;;;;;;14.68;9.15;;;-0.60;99.90;;;;;;4801884;29;20046;-76
2021/12/23 00:59:52;;;;;;;10.80;7.50;;;-0.60;99.90;;;;;;4824623;29;20425;-75
2021/12/23 01:02:18;;;;;;;10.98;7.28;;;-0.60;99.90;;;;;;4837246;29;20062;-75
2021/12/23 01:04:43;;;;;;;11.27;7.18;;;-0.60;99.90;;;;;;4810421;29;20042;-75
2021/12/23 01:07:09;;;;;;;13.07;8.83;;;-0.60;99.90;;;;;;4830790;29;20065;-75
2021/12/23 01:09:35;;;;;;;10.43;7.68;;;-0.60;99.90;;;;;;4840353;29;20054;-75
2021/12/23 01:12:01;;;;;;;13.35;8.27;;;-0.50;99.90;;;;;;4827607;29;20388;-75
2021/12/23 01:14:39;;;;;;;11.15;8.02;;;-0.50;99.90;;;;;;4841379;29;20057;-75
2021/12/23 01:17:23;;;;;;;14.20;8.65;;;-0.50;99.90;;;;;;4834943;29;20246;-75
2021/12/23 01:19:52;;;;;;;11.52;8.07;;;-0.50;99.90;;;;;;4832768;29;20077;-76
2021/12/23 01:22:18;;;;;;;11.77;7.72;;;-0.50;99.90;;;;;;4826875;29;20169;-75
2021/12/23 01:24:44;;;;;;;14.30;8.32;;;-0.50;99.90;;;;;;4840246;29;20056;-75
2021/12/23 01:27:10;;;;;;;14.52;8.75;;;-0.50;99.90;;;;;;4837916;29;20560;-75
2021/12/23 01:29:35;;;;;;;14.60;9.27;;;-0.50;99.90;;;;;;4823087;29;20053;-75
2021/12/23 01:32:04;;;;;;;11.65;8.10;;;-0.50;99.90;;;;;;4828086;29;20060;-75
2021/12/23 01:34:31;;;;;;;12.10;7.43;;;-0.50;99.90;;;;;;4820971;29;20157;-75
2021/12/23 01:36:56;;;;;;;12.18;7.85;;;-0.50;99.90;;;;;;4840327;29;20041;-75
2021/12/23 01:39:22;;;;;;;7.75;5.85;;;-0.50;99.90;;;;;;4835232;29;20049;-75
2021/12/23 01:41:48;;;;;;;15.25;9.73;;;-0.50;99.90;;;;;;4827079;29;20124;-75
2021/12/23 01:44:14;;;;;;;17.60;10.15;;;-0.50;99.90;;;;;;4842724;29;20053;-75
2021/12/23 01:46:39;;;;;;;15.98;10.63;;;-0.40;99.90;;;;;;4834607;29;20514;-75
2021/12/23 01:49:05;;;;;;;17.23;11.20;;;-0.40;99.90;;;;;;4819874;29;20082;-75
2021/12/23 01:51:31;;;;;;;15.20;10.18;;;-0.40;99.90;;;;;;4841691;29;20377;-75
2021/12/23 01:53:57;;;;;;;17.95;10.95;;;-0.40;99.90;;;;;;4825347;29;20125;-75
2021/12/23 01:56:24;;;;;;;16.63;10.88;;;-0.40;99.90;;;;;;4836520;29;20053;-75
2021/12/23 01:58:50;;;;;;;18.27;11.35;;;-0.40;99.90;;;;;;4818333;29;20512;-75
2021/12/23 02:01:16;;;;;;;17.77;11.77;;;-0.40;99.90;;;;;;4834655;29;20081;-75
2021/12/23 02:03:42;;;;;;;20.00;12.23;;;-0.50;99.90;;;;;;4835290;29;20500;-75
2021/12/23 02:06:08;;;;;;;18.30;11.38;;;-0.50;99.90;;;;;;4836792;29;20057;-75
2021/12/23 02:08:35;;;;;;;22.60;12.27;;;-0.50;99.90;;;;;;4835808;29;20104;-75
2021/12/23 02:11:04;;;;;;;18.13;11.70;;;-0.40;99.90;;;;;;4822110;29;20073;-75
2021/12/23 02:13:30;;;;;;;19.48;12.60;;;-0.40;99.90;;;;;;4842282;29;20128;-75
2021/12/23 02:15:58;;;;;;;19.58;11.90;;;-0.50;99.90;;;;;;4841825;29;20087;-75
2021/12/23 02:18:24;;;;;;;17.00;11.30;;;-0.50;99.90;;;;;;4821695;29;20045;-75
2021/12/23 02:20:50;;;;;;;18.20;11.20;;;-0.40;99.90;;;;;;4832310;29;20098;-75
2021/12/23 02:23:16;;;;;;;17.02;11.48;;;-0.50;99.90;;;;;;4841900;29;20047;-75
2021/12/23 02:25:42;;;;;;;17.73;11.25;;;-0.50;99.90;;;;;;4849462;29;20128;-74
2021/12/23 02:28:08;;;;;;;16.25;10.95;;;-0.40;99.90;;;;;;4825160;29;20041;-75
2021/12/23 02:30:39;;;;;;;15.93;10.45;;;-0.40;99.90;;;;;;4815390;29;20402;-75
2021/12/23 02:33:06;;;;;;;16.05;10.93;;;-0.40;99.90;;;;;;4841177;29;20490;-75
2021/12/23 02:35:34;;;;;;;16.40;10.30;;;-0.40;99.90;;;;;;4821390;29;20050;-75
2021/12/23 02:38:00;;;;;;;16.55;11.25;;;-0.40;99.90;;;;;;4833884;29;20195;-75
2021/12/23 02:40:31;;;;;;;19.73;11.63;;;-0.40;99.90;;;;;;4835648;29;20132;-75
2021/12/23 02:43:17;;;;;;;15.63;10.60;;;-0.50;99.90;;;;;;4841225;29;20515;-75
2021/12/23 02:45:44;;;;;;;17.50;11.05;;;-0.50;99.90;;;;;;4838880;29;20049;-75
2021/12/23 02:48:13;;;;;;;15.13;10.52;;;-0.50;99.90;;;;;;4817989;29;20421;-75
2021/12/23 02:50:40;;;;;;;15.93;10.50;;;-0.50;99.90;;;;;;4823281;29;20048;-75
2021/12/23 02:53:05;;;;;;;16.63;10.50;;;-0.50;99.90;;;;;;4826027;29;20407;-75
2021/12/23 02:55:31;;;;;;;17.55;12.30;;;-0.50;99.90;;;;;;4833798;29;20070;-75
2021/12/23 02:57:57;;;;;;;16.80;10.90;;;-0.50;99.90;;;;;;4832628;29;20049;-75
2021/12/23 03:00:23;;;;;;;18.02;11.05;;;-0.50;99.90;;;;;;4831572;29;20295;-75
2021/12/23 03:02:48;;;;;;;16.13;10.88;;;-0.50;99.90;;;;;;4824902;29;20044;-75
2021/12/23 03:05:14;;;;;;;17.10;11.10;;;-0.50;99.90;;;;;;4834675;29;20045;-75
2021/12/23 03:07:40;;;;;;;19.58;12.18;;;-0.50;99.90;;;;;;4834868;29;20114;-75
2021/12/23 03:10:07;;;;;;;18.95;12.27;;;-0.50;99.90;;;;;;4836514;29;20051;-74
2021/12/23 03:12:33;;;;;;;18.38;12.82;;;-0.40;99.90;;;;;;4838246;29;20052;-75
2021/12/23 03:15:00;;;;;;;18.75;12.85;;;-0.40;99.90;;;;;;4823395;29;20418;-74
2021/12/23 03:17:26;;;;;;;20.45;12.52;;;-0.40;99.90;;;;;;4841298;29;20364;-75
2021/12/23 03:19:52;;;;;;;20.13;13.13;;;-0.40;99.90;;;;;;4825410;29;20056;-75
2021/12/23 03:22:18;;;;;;;18.55;12.27;;;-0.40;99.90;;;;;;4834791;29;20121;-75
2021/12/23 03:24:44;;;;;;;19.27;12.70;;;-0.40;99.90;;;;;;4840145;29;20042;-75
2021/12/23 03:27:09;;;;;;;21.45;12.45;;;-0.40;99.90;;;;;;4839863;29;20052;-75
2021/12/23 03:29:35;;;;;;;18.95;12.55;;;-0.30;99.90;;;;;;4832134;29;20476;-75
2021/12/23 03:32:01;;;;;;;22.38;12.93;;;-0.30;99.90;;;;;;4827823;29;20081;-75
2021/12/23 03:34:26;;;;;;;22.00;13.02;;;-0.30;99.90;;;;;;4820839;29;20053;-75
2021/12/23 03:36:52;;;;;;;15.43;9.68;;;-0.30;99.90;;;;;;4802474;29;20050;-75
2021/12/23 03:39:19;;;;;;;21.55;12.20;;;-0.30;99.90;;;;;;4834583;29;20089;-75
2021/12/23 03:41:46;;;;;;;21.38;12.75;;;-0.30;99.90;;;;;;4837556;29;20054;-75
2021/12/23 03:44:12;;;;;;;22.90;13.18;;;-0.30;99.90;;;;;;4830558;29;20041;-74
2021/12/23 03:46:38;;;;;;;21.85;13.07;;;-0.30;99.90;;;;;;4809945;29;20049;-75
2021/12/23 03:49:06;;;;;;;19.63;12.77;;;-0.30;99.90;;;;;;4824083;29;20045;-75
2021/12/23 03:51:32;;;;;;;19.58;11.95;;;-0.30;99.90;;;;;;4834041;29;20621;-75
2021/12/23 03:53:57;;;;;;;21.80;13.82;;;-0.30;99.90;;;;;;4822559;29;20090;-75
2021/12/23 03:56:23;;;;;;;21.42;13.27;;;-0.30;99.90;;;;;;4835557;29;20046;-75
2021/12/23 03:58:49;;;;;;;18.85;12.82;;;-0.30;99.90;;;;;;4839139;29;20088;-74
2021/12/23 04:01:16;;;;;;;19.13;12.35;;;-0.30;99.90;;;;;;4816854;29;20037;-74
2021/12/23 04:03:42;;;;;;;19.50;12.85;;;-0.30;99.90;;;;;;4839204;29;20044;-75
2021/12/23 04:06:08;;;;;;;18.58;12.55;;;-0.20;99.90;;;;;;4836873;29;20404;-75
2021/12/23 04:08:33;;;;;;;19.23;12.70;;;-0.20;99.90;;;;;;4834506;29;20073;-75
2021/12/23 04:11:01;;;;;;;19.73;12.90;;;-0.20;99.90;;;;;;4819793;29;20179;-74
2021/12/23 04:13:27;;;;;;;19.00;13.20;;;-0.30;99.90;;;;;;4817848;29;20064;-75
2021/12/23 04:15:53;;;;;;;19.70;12.45;;;-0.20;99.90;;;;;;4839608;29;20060;-75
2021/12/23 04:18:19;;;;;;;18.77;12.27;;;-0.20;99.90;;;;;;4840724;29;20046;-74
2021/12/23 04:20:53;;;;;;;19.60;12.82;;;-0.20;99.90;;;;;;4827685;29;20034;-75
2021/12/23 04:23:23;;;;;;;21.83;13.82;;;-0.20;99.90;;;;;;4842171;29;20034;-75
2021/12/23 04:25:50;;;;;;;21.88;13.90;;;-0.20;99.90;;;;;;4821211;29;20056;-75
2021/12/23 04:28:15;;;;;;;21.00;13.10;;;-0.20;99.90;;;;;;4826120;29;20041;-75
2021/12/23 04:30:41;;;;;;;17.65;11.98;;;-0.20;99.90;;;;;;4820472;29;20041;-75
2021/12/23 04:33:07;;;;;;;18.65;11.77;;;-0.20;99.90;;;;;;4840275;29;20073;-74
2021/12/23 04:35:33;;;;;;;20.45;11.80;;;-0.20;99.90;;;;;;4824677;29;20105;-74
2021/12/23 04:37:58;;;;;;;19.00;12.40;;;-0.20;99.90;;;;;;4820888;29;20042;-75
2021/12/23 04:40:24;;;;;;;19.92;12.40;;;-0.20;99.90;;;;;;4842809;29;20509;-75
2021/12/23 04:42:50;;;;;;;18.00;12.30;;;-0.20;99.90;;;;;;4818429;29;20120;-75
2021/12/23 04:45:16;;;;;;;19.27;12.45;;;-0.20;99.90;;;;;;4823841;29;20049;-76
2021/12/23 04:47:42;;;;;;;18.58;12.05;;;-0.20;99.90;;;;;;4841798;29;20045;-75
2021/12/23 04:50:11;;;;;;;19.30;12.48;;;-0.20;99.90;;;;;;4844735;29;20044;-75
2021/12/23 04:52:38;;;;;;;18.50;12.10;;;-0.20;99.90;;;;;;4827766;29;20072;-75
2021/12/23 04:55:05;;;;;;;19.05;12.35;;;-0.20;99.90;;;;;;4839088;29;20110;-75
2021/12/23 04:57:30;;;;;;;;;;;-0.20;99.90;;;;;;4838440;29;20460;-75
2021/12/23 04:59:57;;;;;;;18.63;12.35;;;-0.20;99.90;;;;;;4823399;29;19928;-75
2021/12/23 05:02:22;;;;;;;16.00;11.25;;;-0.20;99.90;;;;;;4821456;29;20037;-75
2021/12/23 05:04:51;;;;;;;20.10;13.10;;;-0.10;99.90;;;;;;4841421;29;20097;-75
2021/12/23 05:07:17;;;;;;;18.35;11.55;;;-0.10;99.90;;;;;;4821688;29;20091;-75
2021/12/23 05:09:44;;;;;;;18.98;11.43;;;-0.10;99.90;;;;;;4820995;29;20067;-75
2021/12/23 05:12:09;;;;;;;19.17;11.75;;;-0.10;99.90;;;;;;4795259;29;20803;-75
2021/12/23 05:14:35;;;;;;;17.30;11.70;;;-0.10;99.90;;;;;;4817231;29;20041;-76
2021/12/23 05:17:01;;;;;;;16.38;10.95;;;0.00;99.90;;;;;;4812841;29;20045;-75
2021/12/23 05:19:27;;;;;;;18.75;11.82;;;0.00;99.90;;;;;;4840232;29;20052;-75
2021/12/23 05:21:53;;;;;;;18.27;11.90;;;0.00;99.90;;;;;;4801559;29;20057;-74
2021/12/23 05:24:20;;;;;;;17.30;11.63;;;0.00;99.90;;;;;;4824589;29;20042;-74
2021/12/23 05:26:46;;;;;;;18.25;11.98;;;0.00;99.90;;;;;;4821051;29;20436;-75
2021/12/23 05:29:13;;;;;;;19.87;12.77;;;0.00;99.90;;;;;;4831964;29;20088;-74
2021/12/23 05:31:39;;;;;;;19.70;13.38;;;0.10;99.90;;;;;;4813274;29;20344;-74
2021/12/23 05:34:05;;;;;;;19.17;12.50;;;0.10;99.90;;;;;;4830543;29;20041;-74
2021/12/23 05:36:31;;;;;;;17.33;11.85;;;0.10;99.90;;;;;;4836457;29;20129;-75
2021/12/23 05:38:56;;;;;;;20.75;13.00;;;0.10;99.90;;;;;;4804473;29;20042;-74
2021/12/23 05:41:26;;;;;;;19.67;13.00;;;0.10;99.90;;;;;;4819916;29;20045;-74
2021/12/23 05:43:53;;;;;;;18.92;12.77;;;0.10;99.90;;;;;;4820859;29;20045;-76
2021/12/23 05:46:19;;;;;;;21.35;13.75;;;0.10;99.90;;;;;;4835857;29;20430;-76
2021/12/23 05:48:45;;;;;;;18.90;11.52;;;0.20;99.90;;;;;;4837754;29;20136;-76
2021/12/23 05:51:10;;;;;;;18.00;12.02;;;0.10;99.90;;;;;;4832094;29;20049;-76
2021/12/23 05:53:36;;;;;;;19.17;12.20;;;0.10;99.90;;;;;;4834008;29;20182;-76
2021/12/23 05:56:02;;;;;;;18.13;12.20;;;0.10;99.90;;;;;;4836646;29;20375;-77
2021/12/23 05:58:27;;;;;;;19.60;12.43;;;0.20;99.90;;;;;;4822350;29;20391;-77
2021/12/23 06:00:53;;;;;;;19.33;12.80;;;0.20;99.90;;;;;;4815422;29;20064;-78
2021/12/23 06:03:19;;;;;;;20.17;12.25;;;0.20;99.90;;;;;;4838319;29;20314;-77
2021/12/23 06:05:45;;;;;;;19.73;12.65;;;0.20;99.90;;;;;;4840487;29;20083;-77
2021/12/23 06:08:10;;;;;;;19.65;12.75;;;0.20;99.90;;;;;;4819437;29;20119;-77
2021/12/23 06:10:36;;;;;;;21.83;12.30;;;0.20;99.90;;;;;;4823548;29;20409;-79
2021/12/23 06:13:02;;;;;;;20.45;13.13;;;0.20;99.90;;;;;;4810472;29;20049;-77
2021/12/23 06:15:28;;;;;;;22.95;14.20;;;0.20;99.90;;;;;;4803975;29;20045;-77
2021/12/23 06:17:53;;;;;;;21.38;14.35;;;0.20;99.90;;;;;;4836743;29;20503;-78
2021/12/23 06:20:19;;;;;;;19.77;12.73;;;0.20;99.90;;;;;;4841247;29;20136;-78
2021/12/23 06:22:45;;;;;;;22.58;14.05;;;0.20;99.90;;;;;;4840437;29;20309;-78
2021/12/23 06:25:12;;;;;;;19.15;12.50;;;0.20;99.90;;;;;;4821955;29;20048;-79
2021/12/23 06:27:39;;;;;;;21.48;12.75;;;0.20;99.90;;;;;;4830221;29;20679;-79
2021/12/23 06:30:17;;;;;;;19.05;12.95;;;0.20;99.90;;;;;;4841996;29;20443;-79
2021/12/23 06:32:49;;;;;;;22.20;14.18;;;0.20;99.90;;;;;;4841024;29;20057;-80
2021/12/23 06:35:16;;;;;;;21.85;14.57;;;0.20;99.90;;;;;;4840205;29;20049;-80
2021/12/23 06:37:43;;;;;;;22.27;14.43;;;0.20;99.90;;;;;;4822788;29;20113;-79
2021/12/23 06:40:09;;;;;;;24.58;13.77;;;0.30;99.90;;;;;;4812553;29;20124;-80
2021/12/23 06:42:35;;;;;;;22.02;14.55;;;0.30;99.90;;;;;;4813441;29;20124;-85
2021/12/23 06:45:01;;;;;;;21.95;14.63;;;0.30;99.90;;;;;;4843533;29;22204;-81
2021/12/23 06:47:26;;;;;;;22.40;14.10;;;0.40;99.90;;;;;;4827709;29;20052;-80
2021/12/23 06:49:52;;;;;;;22.98;14.50;;;0.40;99.90;;;;;;4833366;29;20479;-82
2021/12/23 06:52:18;;;;;;;22.80;14.85;;;0.30;99.90;;;;;;4834168;29;20513;-82
2021/12/23 06:54:47;;;;;;;20.92;13.50;;;0.40;99.90;;;;;;4832775;29;20087;-81
2021/12/23 06:57:14;;;;;;;22.10;14.40;;;0.40;99.90;;;;;;4821398;29;20053;-78
2021/12/23 06:59:40;;;;;;;20.02;14.05;;;0.40;99.90;;;;;;4833999;29;20038;-76
2021/12/23 07:02:07;;;;;;;21.45;13.75;;;0.30;99.90;;;;;;4817151;29;20437;-79
2021/12/23 07:04:34;;;;;;;21.98;14.65;;;0.30;99.90;;;;;;4835261;29;20129;-81
2021/12/23 07:07:10;;;;;;;23.95;15.00;;;0.30;99.90;;;;;;4792819;29;20416;-80
2021/12/23 07:09:38;;;;;;;23.30;14.75;;;0.30;99.90;;;;;;4831894;29;20041;-77
2021/12/23 07:12:05;;;;;;;23.55;15.65;;;0.40;99.90;;;;;;4827463;29;20053;-79
2021/12/23 07:14:31;;;;;;;23.58;15.15;;;0.50;99.90;;;;;;4847669;29;20362;-78
2021/12/23 07:16:56;;;;;;;25.05;15.95;;;0.50;99.90;;;;;;4842716;29;20037;-77
2021/12/23 07:19:22;;;;;;;25.23;16.37;;;0.50;99.90;;;;;;4830591;29;20496;-77
2021/12/23 07:21:48;;;;;;;27.50;17.27;;;0.40;99.90;;;;;;4819402;29;20286;-78
2021/12/23 07:24:14;;;;;;;28.23;16.92;;;0.50;99.90;;;;;;4840288;29;20041;-79
2021/12/23 07:26:39;;;;;;;20.63;13.27;;;0.50;99.90;;;;;;4817261;29;20046;-77
2021/12/23 07:29:05;;;;;;;27.25;18.13;;;0.50;99.90;;;;;;4831108;29;20046;-79
2021/12/23 07:31:31;;;;;;;25.58;16.77;;;0.50;99.90;;;;;;4807420;29;20042;-78
2021/12/23 07:33:57;;;;;;;27.00;17.30;;;0.50;99.90;;;;;;4832333;29;20045;-78
2021/12/23 07:36:24;;;;;;;28.30;17.37;;;0.50;99.90;;;;;;4811028;29;20145;-77
2021/12/23 07:38:51;;;;;;;28.60;17.85;;;0.50;99.90;;;;;;4832902;29;20299;-78
2021/12/23 07:41:17;;;;;;;28.90;17.90;;;0.50;99.90;;;;;;4808157;29;20125;-78
2021/12/23 07:43:55;;;;;;;24.95;17.52;;;0.50;99.90;;;;;;4830793;29;20107;-78
2021/12/23 07:46:21;;;;;;;26.52;17.52;;;0.50;99.90;;;;;;4822116;29;20038;-78
2021/12/23 07:48:47;;;;;;;26.35;17.33;;;0.50;99.90;;;;;;4836456;29;20495;-77
2021/12/23 07:51:13;;;;;;;27.00;17.55;;;0.50;99.90;;;;;;4809208;29;20132;-77
2021/12/23 07:53:38;;;;;;;27.20;17.23;;;0.40;99.90;;;;;;4811235;29;20056;-78
2021/12/23 07:56:04;;;;;;;26.20;17.23;;;0.40;99.90;;;;;;4813041;29;20132;-77
2021/12/23 07:58:31;;;;;;;28.60;16.88;;;0.40;99.90;;;;;;4840186;29;20117;-77
2021/12/23 08:00:56;;;;;;;31.70;17.55;;;0.40;99.90;;;;;;4843952;29;20153;-78
2021/12/23 08:03:22;;;;;;;26.43;17.27;;;0.40;99.90;;;;;;4825989;29;20280;-78
2021/12/23 08:05:48;;;;;;;27.58;17.30;;;0.40;99.90;;;;;;4825900;29;20678;-78
2021/12/23 08:08:15;;;;;;;28.23;17.23;;;0.40;99.90;;;;;;4818124;29;20077;-78
2021/12/23 08:10:40;;;;;;;25.20;16.65;;;0.30;99.90;;;;;;4845584;29;20136;-78
2021/12/23 08:13:07;;;;;;;25.33;16.15;;;0.40;99.90;;;;;;4845302;29;20124;-78
2021/12/23 08:15:33;;;;;;;28.33;17.77;;;0.30;99.90;;;;;;4864177;29;20519;-78
2021/12/23 08:17:59;;;;;;;28.23;17.73;;;0.40;99.90;;;;;;4846646;29;20052;-78
2021/12/23 08:20:25;;;;;;;26.10;16.33;;;0.40;99.90;;;;;;4813262;29;20049;-78
2021/12/23 08:22:53;;;;;;;24.25;16.27;;;0.40;99.90;;;;;;4810939;29;20466;-78
2021/12/23 08:25:18;;;;;;;29.27;17.60;;;0.30;99.90;;;;;;4810851;29;20042;-78
2021/12/23 08:27:44;;;;;;;25.97;16.90;;;0.40;99.90;;;;;;4837393;29;20426;-78
2021/12/23 08:30:12;;;;;;;29.77;17.70;;;0.40;99.90;;;;;;4815541;29;20378;-78
2021/12/23 08:32:38;;;;;;;27.63;17.55;;;0.30;99.90;;;;;;4835325;29;20046;-78
2021/12/23 08:35:05;;;;;;;29.52;18.48;;;0.30;99.90;;;;;;4828532;29;20048;-79
2021/12/23 08:37:31;;;;;;;28.80;17.80;;;0.30;99.90;;;;;;4843651;29;20049;-79
2021/12/23 08:39:56;;;;;;;26.55;17.10;;;0.30;99.90;;;;;;4828291;29;20120;-79
2021/12/23 08:42:23;;;;;;;27.30;17.60;;;0.30;99.90;;;;;;4828081;29;20227;-79
2021/12/23 08:44:49;;;;;;;28.95;18.70;;;0.30;99.90;;;;;;4834251;29;20081;-77
2021/12/23 08:47:14;;;;;;;28.15;17.38;;;0.20;99.90;;;;;;4837337;29;20119;-77
2021/12/23 08:49:45;;;;;;;29.17;18.08;;;0.30;99.90;;;;;;4824536;29;20412;-78
2021/12/23 08:52:12;;;;;;;28.95;18.20;;;0.20;99.90;;;;;;4828187;29;20046;-78
2021/12/23 08:54:40;;;;;;;26.98;18.20;;;0.30;99.90;;;;;;4827670;29;20072;-78
2021/12/23 08:57:07;;;;;;;29.40;18.42;;;0.30;99.90;;;;;;4838504;29;20193;-77
2021/12/23 08:59:33;;;;;;;29.60;18.92;;;0.30;99.90;;;;;;4841780;29;20049;-77
2021/12/23 09:01:59;;;;;;;26.58;18.08;;;0.30;99.90;;;;;;4844119;29;20049;-78
2021/12/23 09:04:25;;;;;;;;;;;0.30;99.90;;;;;;4839484;29;20387;-77
2021/12/23 09:06:51;;;;;;;31.75;18.50;;;0.30;99.90;;;;;;4828789;29;19924;-76
2021/12/23 09:09:18;;;;;;;30.52;17.70;;;0.30;99.90;;;;;;4844249;29;20053;-76
2021/12/23 09:11:44;;;;;;;28.70;17.35;;;0.30;99.90;;;;;;4840936;29;20054;-77
2021/12/23 09:14:10;;;;;;;30.25;18.85;;;0.30;99.90;;;;;;4812658;29;20052;-77
2021/12/23 09:16:38;;;;;;;32.63;19.75;;;0.30;99.90;;;;;;4828206;29;20054;-76
2021/12/23 09:19:04;;;;;;;33.63;21.08;;;0.30;99.90;;;;;;4820944;29;20048;-76
2021/12/23 09:21:30;;;;;;;31.23;20.05;;;0.30;99.90;;;;;;4841281;29;20124;-76
2021/12/23 09:23:56;;;;;;;26.83;17.88;;;0.30;99.90;;;;;;4834231;29;20149;-76
2021/12/23 09:26:23;;;;;;;35.08;19.30;;;0.40;99.90;;;;;;4839771;29;20053;-76
2021/12/23 09:34:02;;;;;;;28.63;18.95;;;0.30;99.90;;;;;;4835842;29;20049;-77
2021/12/23 09:36:28;;;;;;;29.60;19.75;;;0.30;99.90;;;;;;4833007;29;20430;-77
2021/12/23 09:38:54;;;;;;;31.08;19.40;;;0.30;99.90;;;;;;4830173;29;20050;-77
2021/12/23 09:41:21;;;;;;;31.83;19.42;;;0.30;99.90;;;;;;4825443;29;20527;-77
2021/12/23 09:43:48;;;;;;;32.42;19.52;;;0.30;99.90;;;;;;4827283;29;20041;-77
2021/12/23 09:46:18;;;;;;;33.88;20.65;;;0.30;99.90;;;;;;4840537;29;20045;-77
2021/12/23 09:48:45;;;;;;;32.97;21.33;;;0.30;99.90;;;;;;4833759;29;20388;-77
2021/12/23 09:51:14;;;;;;;32.97;20.23;;;0.30;99.90;;;;;;4833902;29;20046;-76
2021/12/23 09:53:43;;;;;;;31.50;20.60;;;0.30;99.90;;;;;;4836464;29;20056;-75
2021/12/23 09:56:10;;;;;;;32.03;20.23;;;0.40;99.90;;;;;;4825267;29;20504;-75
2021/12/23 09:58:36;;;;;;;35.65;22.13;;;0.30;99.90;;;;;;4842204;29;20049;-75
2021/12/23 10:01:04;;;;;;;40.47;23.95;;;0.30;99.90;;;;;;4839326;29;20401;-77
2021/12/23 10:03:30;;;;;;;36.10;22.55;;;0.30;99.90;;;;;;4823807;29;20462;-76
2021/12/23 10:05:58;;;;;;;40.40;24.10;;;0.30;99.90;;;;;;4835434;29;20064;-76
2021/12/23 10:08:27;;;;;;;38.83;23.40;;;0.30;99.90;;;;;;4832578;29;20057;-76
2021/12/23 10:30:31;;;;;;;41.90;24.33;;;0.30;99.90;;;;;;4860642;29;20057;-76
2021/12/23 10:38:53;;;;;;;43.65;25.88;;;0.30;99.90;;;;;;4860025;29;20053;-75
2021/12/23 10:41:25;;;;;;;44.47;25.05;;;0.30;99.90;;;;;;4843447;29;20081;-75
2021/12/23 10:43:58;;;;;;;47.10;26.77;;;0.30;99.90;;;;;;4848825;29;20118;-76
2021/12/23 10:46:28;;;;;;;45.58;25.77;;;0.40;99.90;;;;;;4859867;29;20444;-76
2021/12/23 10:49:49;;;;;;;50.03;27.45;;;0.30;99.90;;;;;;4859891;29;20045;-75
2021/12/23 10:52:05;;;;;;;45.70;25.85;;;0.30;99.90;;;;;;4844128;29;20057;-76
2021/12/23 11:00:26;;;;;;;47.55;26.13;;;0.40;99.90;;;;;;4834945;29;20053;-75
2021/12/23 11:03:11;;;;;;;47.63;26.38;;;0.40;99.90;;;;;;4838981;29;20494;-75
2021/12/23 11:05:47;;;;;;;49.78;27.05;;;0.40;99.90;;;;;;4835497;29;20053;-75
2021/12/23 11:08:25;;;;;;;50.97;28.40;;;0.40;99.90;;;;;;4809183;29;20156;-75
2021/12/23 11:27:35;;;;;;;49.35;28.25;;;0.40;99.90;;;;;;4843441;29;20068;-77
2021/12/23 11:41:19;;;;;;;46.28;25.75;;;0.50;99.90;;;;;;4836308;29;20380;-76
2021/12/23 11:43:51;;;;;;;50.53;27.88;;;0.50;99.90;;;;;;4821701;29;20034;-77
2021/12/23 11:46:19;;;;;;;47.53;27.15;;;0.50;99.90;;;;;;4837993;29;20091;-76
2021/12/23 11:48:47;;;;;;;51.40;28.83;;;0.50;99.90;;;;;;4838238;29;20041;-76
2021/12/23 11:51:19;;;;;;;50.08;27.20;;;0.50;99.90;;;;;;4833921;29;20110;-76
2021/12/23 11:53:49;;;;;;;55.78;28.50;;;0.50;99.90;;;;;;4838665;29;20045;-76
2021/12/23 11:56:18;;;;;;;45.85;27.05;;;0.50;99.90;;;;;;4824730;29;20056;-76
2021/12/23 11:58:46;;;;;;;48.92;27.13;;;0.50;99.90;;;;;;4837023;29;20065;-76
2021/12/23 12:01:17;;;;;;;46.20;25.02;;;0.50;99.90;;;;;;4826760;29;20046;-76
2021/12/23 12:04:05;;;;;;;50.58;27.52;;;0.60;99.90;;;;;;4842910;29;20045;-76
2021/12/23 12:06:45;;;;;;;49.05;26.88;;;0.60;99.90;;;;;;4837356;29;20372;-76
2021/12/23 12:09:26;;;;;;;50.15;26.88;;;0.60;99.90;;;;;;4827524;29;21279;-77
2021/12/23 12:12:09;;;;;;;47.42;27.00;;;0.60;99.90;;;;;;4820556;29;20048;-77
2021/12/23 12:14:40;;;;;;;48.50;27.02;;;0.60;99.90;;;;;;4824314;29;20508;-77
2021/12/23 12:17:25;;;;;;;47.58;27.15;;;0.60;99.90;;;;;;4819888;29;20048;-77
2021/12/23 12:20:21;;;;;;;44.65;24.20;;;0.70;99.90;;;;;;4820531;29;20518;-77
2021/12/23 12:22:59;;;;;;;46.72;25.27;;;0.70;99.90;;;;;;4802891;29;20144;-77
2021/12/23 12:25:24;;;;;;;43.20;25.52;;;0.70;99.90;;;;;;4807348;29;20125;-77
2021/12/23 12:27:50;;;;;;;37.43;21.57;;;0.70;99.90;;;;;;4818183;29;20487;-77
2021/12/23 12:30:18;;;;;;;49.25;27.20;;;0.70;99.90;;;;;;4820330;29;20121;-77
2021/12/23 12:32:44;;;;;;;46.75;26.98;;;0.70;99.90;;;;;;4793345;29;20381;-77
2021/12/23 12:35:20;;;;;;;47.55;26.70;;;0.80;99.90;;;;;;4804088;29;20096;-77
2021/12/23 12:37:51;;;;;;;46.78;25.33;;;0.80;99.90;;;;;;4800803;29;20053;-77
2021/12/23 12:40:17;;;;;;;50.22;26.77;;;0.80;99.90;;;;;;4820663;29;20090;-77
2021/12/23 12:42:47;;;;;;;44.63;25.58;;;0.80;99.90;;;;;;4816504;29;20049;-77
2021/12/23 12:45:24;;;;;;;46.78;26.50;;;0.80;99.90;;;;;;4802538;29;20354;-77
2021/12/23 12:47:55;;;;;;;42.85;24.30;;;0.80;99.90;;;;;;4819360;29;20054;-77
2021/12/23 12:50:27;;;;;;;44.13;25.77;;;0.80;99.90;;;;;;4794736;29;20042;-77
2021/12/23 12:53:00;;;;;;;45.97;25.38;;;0.80;99.90;;;;;;4815589;29;20926;-77
2021/12/23 12:55:26;;;;;;;50.60;27.27;;;0.80;99.90;;;;;;4810412;29;20058;-77
2021/12/23 12:57:57;;;;;;;;;;;0.80;99.90;;;;;;4819991;29;20049;-77
2021/12/23 13:00:33;;;;;;;45.65;25.23;;;0.80;99.90;;;;;;4822891;29;19974;-77
2021/12/23 13:03:20;;;;;;;45.08;24.67;;;0.80;99.90;;;;;;4815681;29;20042;-77
2021/12/23 13:05:52;;;;;;;48.70;27.10;;;0.80;99.90;;;;;;4798970;29;20137;-77
2021/12/23 13:08:29;;;;;;;48.60;26.02;;;0.90;99.90;;;;;;4814503;29;20451;-77
2021/12/23 13:11:20;;;;;;;49.30;26.70;;;0.80;99.90;;;;;;4819227;29;20503;-77
2021/12/23 13:13:49;;;;;;;44.45;25.00;;;0.80;99.90;;;;;;4815973;29;20392;-77
2021/12/23 13:16:25;;;;;;;43.85;24.90;;;0.90;99.90;;;;;;4803188;29;20038;-77
2021/12/23 13:19:18;;;;;;;48.90;26.15;;;0.80;99.90;;;;;;4801720;29;20501;-76
2021/12/23 13:21:50;;;;;;;53.28;27.75;;;0.90;99.90;;;;;;4821221;29;20057;-77
2021/12/23 13:24:18;;;;;;;49.72;27.40;;;0.80;99.90;;;;;;4801746;29;20042;-76
2021/12/23 13:26:45;;;;;;;53.10;28.25;;;0.80;99.90;;;;;;4816015;29;20341;-78
2021/12/23 13:29:12;;;;;;;45.72;26.10;;;0.90;99.90;;;;;;4816065;29;20409;-78
2021/12/23 13:31:40;;;;;;;48.20;26.88;;;0.90;99.90;;;;;;4786371;29;20048;-78
2021/12/23 13:34:20;;;;;;;50.42;28.13;;;0.90;99.90;;;;;;4803628;29;20050;-77
2021/12/23 13:36:49;;;;;;;45.40;24.77;;;0.80;99.90;;;;;;4813203;29;20076;-79
2021/12/23 13:39:20;;;;;;;50.40;26.23;;;0.90;99.90;;;;;;4820513;29;20041;-78
2021/12/23 13:42:02;;;;;;;45.03;24.25;;;0.90;99.90;;;;;;4827413;29;20124;-79
2021/12/23 13:44:35;;;;;;;49.97;27.20;;;0.90;99.90;;;;;;4817831;29;20607;-78
2021/12/23 13:47:01;;;;;;;44.88;24.23;;;0.90;99.90;;;;;;4795357;29;20046;-78
2021/12/23 13:49:46;;;;;;;41.30;20.95;;;0.90;99.90;;;;;;4823656;29;20069;-78
2021/12/23 13:52:20;;;;;;;43.60;23.52;;;0.90;99.90;;;;;;4805072;29;20081;-78